createdAt,value
2019-03-01T00:04:49.767Z,3.80
2019-03-01T00:07:56.270Z,3.60
2019-03-01T00:11:02.899Z,3.73
2019-03-01T00:14:09.275Z,3.00
2019-03-01T00:17:15.976Z,3.40
2019-03-01T00:19:56.185Z,3.83
2019-03-01T00:22:36.376Z,3.63
2019-03-01T00:25:43.026Z,3.70
2019-03-01T00:28:43.243Z,4.07
2019-03-01T00:31:23.779Z,3.57
2019-03-01T00:34:18.552Z,3.93
2019-03-01T00:37:25.227Z,3.30
2019-03-01T00:40:31.626Z,3.40
2019-03-01T00:43:39.021Z,3.77
2019-03-01T00:46:07.717Z,3.80
2019-03-01T00:48:35.581Z,3.67
2019-03-01T00:51:03.597Z,3.13
2019-03-01T00:53:31.811Z,3.57
2019-03-01T00:56:00.360Z,3.40
2019-03-01T00:58:29.227Z,3.33
2019-03-01T01:00:57.765Z,3.37
2019-03-01T01:03:26.106Z,3.13
2019-03-01T01:05:54.311Z,3.53
2019-03-01T01:08:22.579Z,2.53
2019-03-01T01:10:50.938Z,3.00
2019-03-01T01:13:19.322Z,3.23
2019-03-01T01:15:47.759Z,3.23
2019-03-01T01:18:16.271Z,3.23
2019-03-01T01:20:44.907Z,3.03
2019-03-01T01:23:13.510Z,2.73
2019-03-01T01:25:42.080Z,2.63
2019-03-01T01:28:09.527Z,2.50
2019-03-01T01:30:38.122Z,2.80
2019-03-01T01:33:06.429Z,2.60
2019-03-01T01:35:35.095Z,2.27
2019-03-01T01:38:03.673Z,2.60
2019-03-01T01:40:31.931Z,3.13
2019-03-01T01:43:00.560Z,2.67
2019-03-01T01:45:29.088Z,2.90
2019-03-01T01:47:57.327Z,2.20
2019-03-01T01:50:25.501Z,2.00
2019-03-01T01:52:53.710Z,2.67
2019-03-01T01:55:21.642Z,1.90
2019-03-01T01:57:50.245Z,1.87
2019-03-01T02:00:18.534Z,2.20
2019-03-01T02:02:46.791Z,2.67
2019-03-01T02:05:14.923Z,2.10
2019-03-01T02:07:43.235Z,2.10
2019-03-01T02:10:11.858Z,2.33
2019-03-01T02:12:40.143Z,2.40
2019-03-01T02:18:29.690Z,2.20
2019-03-01T02:20:57.887Z,1.80
2019-03-01T02:23:26.126Z,2.10
2019-03-01T02:25:54.426Z,2.13
2019-03-01T02:28:22.410Z,1.93
2019-03-01T02:30:50.410Z,1.63
2019-03-01T02:33:18.588Z,1.47
2019-03-01T02:35:46.841Z,1.90
2019-03-01T02:38:15.568Z,1.80
2019-03-01T02:40:44.142Z,1.83
2019-03-01T02:43:12.758Z,1.87
2019-03-01T02:45:40.665Z,2.10
2019-03-01T02:48:08.552Z,1.63
2019-03-01T02:50:37.178Z,1.80
2019-03-01T02:53:05.446Z,1.80
2019-03-01T02:55:33.349Z,1.57
2019-03-01T02:58:02.053Z,2.00
2019-03-01T03:00:29.633Z,1.70
2019-03-01T03:02:58.280Z,2.10
2019-03-01T03:05:26.996Z,1.87
2019-03-01T03:08:14.676Z,1.97
2019-03-01T03:10:43.584Z,1.57
2019-03-01T03:13:11.163Z,1.50
2019-03-01T03:18:36.789Z,1.83
2019-03-01T03:21:05.407Z,1.40
2019-03-01T03:23:33.653Z,1.63
2019-03-01T03:26:02.177Z,1.40
2019-03-01T03:28:30.157Z,1.57
2019-03-01T03:31:17.439Z,1.70
2019-03-01T03:33:45.691Z,1.70
2019-03-01T03:36:14.415Z,1.63
2019-03-01T03:38:42.967Z,1.90
2019-03-01T03:41:11.699Z,1.80
2019-03-01T03:43:51.120Z,2.30
2019-03-01T03:46:19.820Z,2.50
2019-03-01T03:48:47.996Z,1.60
2019-03-01T03:51:16.555Z,1.90
2019-03-01T03:53:45.277Z,1.70
2019-03-01T03:56:13.552Z,1.40
2019-03-01T03:58:41.822Z,1.60
2019-03-01T04:01:10.538Z,1.87
2019-03-01T04:03:39.045Z,1.70
2019-03-01T04:06:07.208Z,1.97
2019-03-01T04:08:35.896Z,1.80
2019-03-01T04:11:04.176Z,1.63
2019-03-01T04:13:32.336Z,1.80
2019-03-01T04:16:00.929Z,1.73
2019-03-01T04:18:29.168Z,1.90
2019-03-01T04:20:57.748Z,1.63
2019-03-01T04:23:25.670Z,1.73
2019-03-01T04:25:54.439Z,1.70
2019-03-01T04:28:22.362Z,2.10
2019-03-01T04:30:50.195Z,1.70
2019-03-01T04:33:18.404Z,2.63
2019-03-01T04:35:46.686Z,2.20
2019-03-01T04:38:14.973Z,2.57
2019-03-01T04:40:43.247Z,3.00
2019-03-01T04:43:12.054Z,2.67
2019-03-01T04:48:36.552Z,2.57
2019-03-01T04:51:05.219Z,2.53
2019-03-01T04:53:33.647Z,2.20
2019-03-01T04:56:01.486Z,2.83
2019-03-01T04:58:30.076Z,2.73
2019-03-01T05:00:58.454Z,2.83
2019-03-01T05:03:26.645Z,2.87
2019-03-01T05:05:54.825Z,2.40
2019-03-01T05:08:23.358Z,2.40
2019-03-01T05:10:51.607Z,2.77
2019-03-01T05:13:20.201Z,3.47
2019-03-01T05:15:48.682Z,3.67
2019-03-01T05:18:17.261Z,4.33
2019-03-01T05:24:06.772Z,3.90
2019-03-01T05:26:34.708Z,5.47
2019-03-01T05:29:03.224Z,5.33
2019-03-01T05:31:31.801Z,5.97
2019-03-01T05:34:00.512Z,4.20
2019-03-01T05:36:29.268Z,3.63
2019-03-01T05:38:57.911Z,3.77
2019-03-01T05:41:25.421Z,6.00
2019-03-01T05:43:53.982Z,5.90
2019-03-01T05:46:22.700Z,7.00
2019-03-01T05:48:50.269Z,7.70
2019-03-01T05:51:18.647Z,10.37
2019-03-01T05:53:47.209Z,12.33
2019-03-01T05:56:14.693Z,8.53
2019-03-01T05:58:45.713Z,10.07
2019-03-01T06:01:35.581Z,10.50
2019-03-01T06:04:10.133Z,8.83
2019-03-01T06:07:16.847Z,10.10
2019-03-01T06:10:23.328Z,5.60
2019-03-01T06:13:29.704Z,5.93
2019-03-01T06:16:36.364Z,4.73
2019-03-01T06:19:42.986Z,4.47
2019-03-01T06:22:49.612Z,6.73
2019-03-01T06:25:56.342Z,6.53
2019-03-01T06:28:49.924Z,4.70
2019-03-01T06:31:42.238Z,6.70
2019-03-01T06:34:48.923Z,4.83
2019-03-01T06:37:55.629Z,7.93
2019-03-01T06:41:21.557Z,4.17
2019-03-01T06:44:27.675Z,3.00
2019-03-01T06:47:34.367Z,3.30
2019-03-01T06:50:21.760Z,2.90
2019-03-01T06:52:49.644Z,1.80
2019-03-01T06:55:38.285Z,2.10
2019-03-01T06:58:08.411Z,2.30
2019-03-01T07:03:35.878Z,1.87
2019-03-01T07:06:03.830Z,1.07
2019-03-01T07:08:32.449Z,1.00
2019-03-01T07:11:00.304Z,1.70
2019-03-01T07:13:28.600Z,2.00
2019-03-01T07:15:56.168Z,0.70
2019-03-01T07:18:36.127Z,1.50
2019-03-01T07:21:16.163Z,2.20
2019-03-01T07:23:44.457Z,2.10
2019-03-01T07:26:12.336Z,1.50
2019-03-01T07:28:40.603Z,1.50
2019-03-01T07:31:09.194Z,3.73
2019-03-01T07:33:37.163Z,2.00
2019-03-01T07:36:05.159Z,1.50
2019-03-01T07:38:33.408Z,1.57
2019-03-01T07:41:01.696Z,2.60
2019-03-01T07:43:29.973Z,1.43
2019-03-01T07:45:57.571Z,1.20
2019-03-01T07:51:26.962Z,1.70
2019-03-01T07:53:55.740Z,2.20
2019-03-01T07:56:23.600Z,2.00
2019-03-01T07:58:51.989Z,1.00
2019-03-01T08:01:20.593Z,1.30
2019-03-01T08:03:52.293Z,1.50
2019-03-01T08:09:27.408Z,1.50
2019-03-01T08:15:15.873Z,1.23
2019-03-01T08:17:44.467Z,1.20
2019-03-01T08:20:13.864Z,2.20
2019-03-01T08:22:48.444Z,1.40
2019-03-01T08:25:23.736Z,1.97
2019-03-01T08:27:55.375Z,2.60
2019-03-01T08:30:22.939Z,2.80
2019-03-01T08:32:51.441Z,1.73
2019-03-01T08:35:19.809Z,1.30
2019-03-01T08:38:06.882Z,1.10
2019-03-01T08:40:35.188Z,1.33
2019-03-01T08:43:03.078Z,1.20
2019-03-01T08:45:32.906Z,1.07
2019-03-01T08:48:07.481Z,1.93
2019-03-01T08:50:35.938Z,2.50
2019-03-01T08:53:03.982Z,4.43
2019-03-01T08:55:35.662Z,3.93
2019-03-01T08:58:06.799Z,0.90
2019-03-01T09:00:40.095Z,3.63
2019-03-01T09:03:28.788Z,3.17
2019-03-01T09:05:57.450Z,1.93
2019-03-01T09:08:36.897Z,2.50
2019-03-01T09:11:23.790Z,4.70
2019-03-01T09:13:52.111Z,2.00
2019-03-01T09:19:22.395Z,1.13
2019-03-01T09:22:01.199Z,2.03
2019-03-01T09:24:30.035Z,3.17
2019-03-01T09:27:06.265Z,6.83
2019-03-01T09:29:41.306Z,2.07
2019-03-01T09:32:10.548Z,5.67
2019-03-01T09:34:38.768Z,2.53
2019-03-01T09:37:07.073Z,3.30
2019-03-01T09:39:35.356Z,1.70
2019-03-01T09:42:06.123Z,1.20
2019-03-01T09:44:42.943Z,1.50
2019-03-01T09:47:11.163Z,1.20
2019-03-01T09:49:39.815Z,2.30
2019-03-01T09:52:08.327Z,2.00
2019-03-01T09:54:36.603Z,1.40
2019-03-01T09:57:04.974Z,0.70
2019-03-01T09:59:32.937Z,0.80
2019-03-01T10:02:01.675Z,1.30
2019-03-01T10:04:29.909Z,1.17
2019-03-01T10:06:58.366Z,0.80
2019-03-01T10:09:26.303Z,1.10
2019-03-01T10:11:54.905Z,0.90
2019-03-01T10:14:23.515Z,0.63
2019-03-01T10:16:54.732Z,0.80
2019-03-01T10:19:22.896Z,1.43
2019-03-01T10:21:51.485Z,1.23
2019-03-01T10:24:19.778Z,0.90
2019-03-01T10:26:48.383Z,1.37
2019-03-01T10:29:16.847Z,1.20
2019-03-01T10:31:44.793Z,1.80
2019-03-01T10:34:13.327Z,2.20
2019-03-01T10:36:41.833Z,1.67
2019-03-01T10:45:36.945Z,1.60
2019-03-01T10:48:05.194Z,1.77
2019-03-01T10:50:33.413Z,1.17
2019-03-01T10:53:02.155Z,1.07
2019-03-01T10:55:30.435Z,2.53
2019-03-01T10:57:58.612Z,3.57
2019-03-01T11:00:27.015Z,2.13
2019-03-01T11:02:55.742Z,10.23
2019-03-01T11:06:03.988Z,4.73
2019-03-01T11:08:32.131Z,3.53
2019-03-01T11:11:00.559Z,2.47
2019-03-01T11:13:29.338Z,2.40
2019-03-01T11:15:57.223Z,3.67
2019-03-01T11:18:25.487Z,4.43
2019-03-01T11:20:53.780Z,4.80
2019-03-01T11:23:22.325Z,8.77
2019-03-01T11:25:50.255Z,1.80
2019-03-01T11:28:18.767Z,4.13
2019-03-01T11:30:47.456Z,6.33
2019-03-01T11:33:15.884Z,3.13
2019-03-01T11:35:44.621Z,5.10
2019-03-01T11:38:12.937Z,8.07
2019-03-01T11:40:40.859Z,9.67
2019-03-01T11:43:09.134Z,2.77
2019-03-01T11:45:37.830Z,3.00
2019-03-01T11:48:06.668Z,2.27
2019-03-01T11:50:35.456Z,1.20
2019-03-01T11:53:03.798Z,2.00
2019-03-01T11:55:31.696Z,3.93
2019-03-01T11:58:00.049Z,1.40
2019-03-01T12:00:28.364Z,2.03
2019-03-01T12:02:56.627Z,3.60
2019-03-01T12:05:25.217Z,3.80
2019-03-01T12:10:56.030Z,4.53
2019-03-01T12:13:24.722Z,4.00
2019-03-01T12:19:02.158Z,3.07
2019-03-01T12:21:30.424Z,3.43
2019-03-01T12:24:29.969Z,2.10
2019-03-01T12:26:57.499Z,1.67
2019-03-01T12:30:06.197Z,1.20
2019-03-01T12:32:34.628Z,1.37
2019-03-01T12:35:02.663Z,6.67
2019-03-01T12:37:31.263Z,2.00
2019-03-01T12:39:59.886Z,1.23
2019-03-01T12:42:28.144Z,1.43
2019-03-01T12:44:56.499Z,1.10
2019-03-01T12:47:25.092Z,1.70
2019-03-01T12:49:53.876Z,1.20
2019-03-01T12:52:22.465Z,1.10
2019-03-01T12:54:51.140Z,1.20
2019-03-01T12:57:19.764Z,1.00
2019-03-01T12:59:48.269Z,1.10
2019-03-01T13:02:16.824Z,4.90
2019-03-01T13:04:45.632Z,4.10
2019-03-01T13:07:14.037Z,7.60
2019-03-01T13:09:41.641Z,2.40
2019-03-01T13:12:09.119Z,4.00
2019-03-01T13:14:39.525Z,2.63
2019-03-01T13:17:14.003Z,4.20
2019-03-01T13:20:21.930Z,4.10
2019-03-01T13:22:50.564Z,7.60
2019-03-01T13:25:18.530Z,3.57
2019-03-01T13:27:48.814Z,3.50
2019-03-01T13:30:23.950Z,2.03
2019-03-01T13:32:51.939Z,1.87
2019-03-01T13:35:22.205Z,3.83
2019-03-01T13:37:56.770Z,3.77
2019-03-01T13:40:33.612Z,2.80
2019-03-01T13:46:03.029Z,4.50
2019-03-01T13:48:31.625Z,4.17
2019-03-01T13:50:59.983Z,3.50
2019-03-01T13:54:09.012Z,7.20
2019-03-01T13:56:56.760Z,5.37
2019-03-01T13:59:24.703Z,3.80
2019-03-01T14:01:52.910Z,5.17
2019-03-01T14:04:20.511Z,5.67
2019-03-01T14:06:49.168Z,4.57
2019-03-01T14:09:17.665Z,8.17
2019-03-01T14:11:46.334Z,5.23
2019-03-01T14:14:14.258Z,6.03
2019-03-01T14:16:42.788Z,8.60
2019-03-01T14:19:11.318Z,16.70
2019-03-01T14:25:11.652Z,5.70
2019-03-01T14:27:39.666Z,5.87
2019-03-01T14:30:10.006Z,5.90
2019-03-01T14:32:38.337Z,4.00
2019-03-01T14:35:07.030Z,4.30
2019-03-01T14:40:36.730Z,5.40
2019-03-01T14:43:05.192Z,6.10
2019-03-01T14:45:33.212Z,6.40
2019-03-01T14:48:42.997Z,8.20
2019-03-01T14:51:18.231Z,4.60
2019-03-01T14:53:46.524Z,4.87
2019-03-01T14:56:22.357Z,4.03
2019-03-01T14:59:35.131Z,3.83
2019-03-01T15:02:43.822Z,4.90
2019-03-01T15:05:17.771Z,3.73
2019-03-01T15:14:12.314Z,10.53
2019-03-01T15:16:39.253Z,6.37
2019-03-01T15:19:08.057Z,7.67
2019-03-01T15:21:44.484Z,6.20
2019-03-01T15:24:12.523Z,4.77
2019-03-01T15:26:40.726Z,5.10
2019-03-01T15:29:08.919Z,5.03
2019-03-01T15:31:37.644Z,6.53
2019-03-01T15:34:05.554Z,6.70
2019-03-01T15:36:33.850Z,6.37
2019-03-01T15:39:04.045Z,5.37
2019-03-01T15:41:32.475Z,5.17
2019-03-01T15:44:01.203Z,7.10
2019-03-01T15:46:29.454Z,8.63
2019-03-01T15:48:57.613Z,6.10
2019-03-01T15:51:26.358Z,5.90
2019-03-01T15:53:57.690Z,11.53
2019-03-01T15:56:30.335Z,11.40
2019-03-01T15:58:58.290Z,8.73
2019-03-01T16:01:26.625Z,9.63
2019-03-01T16:03:57.168Z,8.83
2019-03-01T16:06:34.451Z,9.03
2019-03-01T16:09:15.213Z,10.53
2019-03-01T16:11:43.784Z,8.80
2019-03-01T16:14:11.659Z,9.30
2019-03-01T16:16:39.531Z,8.43
2019-03-01T16:19:11.103Z,6.60
2019-03-01T16:21:39.816Z,7.53
2019-03-01T16:24:18.110Z,9.43
2019-03-01T16:26:46.678Z,7.60
2019-03-01T16:29:15.229Z,8.03
2019-03-01T16:31:43.854Z,7.57
2019-03-01T16:34:11.850Z,7.67
2019-03-01T16:36:42.842Z,10.80
2019-03-01T16:39:12.501Z,12.93
2019-03-01T16:41:42.900Z,17.67
2019-03-01T16:44:19.615Z,16.20
2019-03-01T16:46:47.981Z,11.57
2019-03-01T16:49:16.280Z,16.83
2019-03-01T16:51:44.461Z,13.03
2019-03-01T16:54:16.303Z,14.07
2019-03-01T16:56:52.780Z,11.87
2019-03-01T16:59:32.910Z,16.03
2019-03-01T17:02:06.197Z,11.53
2019-03-01T17:04:38.083Z,12.43
2019-03-01T17:07:06.300Z,12.07
2019-03-01T17:09:34.657Z,12.03
2019-03-01T17:12:03.279Z,13.83
2019-03-01T17:14:34.915Z,15.63
2019-03-01T17:17:12.417Z,15.00
2019-03-01T17:19:40.863Z,16.27
2019-03-01T17:22:09.079Z,21.00
2019-03-01T17:24:37.442Z,20.33
2019-03-01T17:27:06.773Z,18.77
2019-03-01T17:29:45.899Z,15.30
2019-03-01T17:32:14.181Z,15.67
2019-03-01T17:34:42.445Z,16.77
2019-03-01T17:37:10.956Z,17.13
2019-03-01T17:40:09.996Z,18.40
2019-03-01T17:45:20.956Z,17.83
2019-03-01T17:48:29.628Z,20.60
2019-03-01T17:51:05.158Z,19.47
2019-03-01T17:53:33.871Z,19.60
2019-03-01T17:56:02.152Z,17.93
2019-03-01T18:01:40.302Z,17.87
2019-03-01T18:04:09.029Z,16.87
2019-03-01T18:06:37.630Z,19.03
2019-03-01T18:09:06.427Z,18.80
2019-03-01T18:11:34.408Z,18.90
2019-03-01T18:14:03.134Z,17.77
2019-03-01T18:16:31.054Z,16.60
2019-03-01T18:18:59.359Z,18.70
2019-03-01T18:21:28.123Z,18.23
2019-03-01T18:23:56.838Z,17.47
2019-03-01T18:26:24.933Z,17.20
2019-03-01T18:28:53.448Z,16.93
2019-03-01T18:31:22.226Z,19.10
2019-03-01T18:33:49.843Z,16.97
2019-03-01T18:36:18.222Z,17.30
2019-03-01T18:38:46.572Z,17.30
2019-03-01T18:41:14.487Z,17.97
2019-03-01T18:43:45.877Z,17.73
2019-03-01T18:46:20.605Z,18.07
2019-03-01T18:49:00.312Z,17.60
2019-03-01T18:51:28.592Z,17.93
2019-03-01T18:53:56.591Z,18.73
2019-03-01T18:56:28.334Z,19.90
2019-03-01T18:59:00.303Z,19.50
2019-03-01T19:01:28.744Z,19.43
2019-03-01T19:03:58.947Z,19.07
2019-03-01T19:06:33.678Z,20.53
2019-03-01T19:09:03.766Z,19.80
2019-03-01T19:11:34.667Z,20.17
2019-03-01T19:14:08.581Z,20.77
2019-03-01T19:16:36.795Z,21.70
2019-03-01T19:19:16.438Z,19.47
2019-03-01T19:21:44.104Z,22.17
2019-03-01T19:24:12.884Z,21.83
2019-03-01T19:26:41.195Z,23.53
2019-03-01T19:29:09.456Z,21.20
2019-03-01T19:31:37.082Z,23.03
2019-03-01T19:34:45.744Z,23.27
2019-03-01T19:37:14.541Z,22.60
2019-03-01T19:39:54.137Z,23.00
2019-03-01T19:42:22.083Z,23.17
2019-03-01T19:44:50.553Z,23.57
2019-03-01T19:47:18.108Z,23.20
2019-03-01T19:49:48.643Z,25.00
2019-03-01T19:52:22.846Z,27.33
2019-03-01T19:54:51.344Z,25.53
2019-03-01T19:57:20.014Z,28.00
2019-03-01T19:59:49.621Z,27.33
2019-03-01T20:02:27.831Z,26.47
2019-03-01T20:05:01.655Z,28.33
2019-03-01T20:07:29.523Z,30.33
2019-03-01T20:09:57.849Z,29.13
2019-03-01T20:12:25.873Z,32.67
2019-03-01T20:14:54.172Z,30.33
2019-03-01T20:17:22.682Z,32.43
2019-03-01T20:19:53.602Z,32.73
2019-03-01T20:22:27.232Z,34.20
2019-03-01T20:24:55.228Z,40.80
2019-03-01T20:27:24.080Z,35.30
2019-03-01T20:29:53.454Z,34.10
2019-03-01T20:32:21.962Z,31.87
2019-03-01T20:34:50.370Z,34.20
2019-03-01T20:37:18.728Z,32.57
2019-03-01T20:39:47.394Z,34.67
2019-03-01T20:42:24.539Z,34.80
2019-03-01T20:44:53.947Z,37.97
2019-03-01T20:47:23.056Z,32.37
2019-03-01T20:49:51.043Z,32.03
2019-03-01T20:52:19.363Z,32.73
2019-03-01T20:54:47.936Z,34.13
2019-03-01T20:57:16.679Z,35.67
2019-03-01T20:59:46.824Z,35.43
2019-03-01T21:02:15.934Z,35.40
2019-03-01T21:04:56.155Z,35.00
2019-03-01T21:07:24.071Z,32.57
2019-03-01T21:09:52.651Z,36.07
2019-03-01T21:12:21.371Z,37.57
2019-03-01T21:18:12.410Z,34.40
2019-03-01T21:20:40.620Z,32.80
2019-03-01T21:23:11.772Z,34.97
2019-03-01T21:25:45.233Z,34.47
2019-03-01T21:28:13.826Z,40.83
2019-03-01T21:30:41.988Z,40.17
2019-03-01T21:33:10.663Z,37.73
2019-03-01T21:35:39.301Z,39.00
2019-03-01T21:38:10.649Z,40.87
2019-03-01T21:41:24.099Z,38.93
2019-03-01T21:43:52.199Z,36.30
2019-03-01T21:46:20.574Z,36.17
2019-03-01T21:48:48.784Z,32.23
2019-03-01T21:51:18.514Z,34.60
2019-03-01T21:53:52.627Z,32.47
2019-03-01T21:56:20.652Z,33.83
2019-03-01T21:58:49.348Z,35.70
2019-03-01T22:01:17.548Z,34.57
2019-03-01T22:03:45.834Z,26.80
2019-03-01T22:06:14.420Z,28.17
2019-03-01T22:08:44.861Z,32.87
2019-03-01T22:11:20.974Z,30.83
2019-03-01T22:13:50.293Z,29.03
2019-03-01T22:16:19.775Z,32.50
2019-03-01T22:18:49.075Z,32.97
2019-03-01T22:21:37.597Z,34.00
2019-03-01T22:27:46.902Z,35.20
2019-03-01T22:30:27.995Z,36.90
2019-03-01T22:36:05.292Z,38.47
2019-03-01T22:38:37.600Z,37.30
2019-03-01T22:41:04.825Z,37.63
2019-03-01T22:44:24.971Z,38.30
2019-03-01T22:46:53.779Z,36.43
2019-03-01T22:49:22.413Z,38.77
2019-03-01T22:51:52.910Z,37.80
2019-03-01T22:54:20.768Z,35.60
2019-03-01T22:56:49.540Z,37.27
2019-03-01T22:59:25.799Z,36.40
2019-03-01T23:01:56.615Z,35.93
2019-03-01T23:04:26.570Z,33.63
2019-03-01T23:07:01.771Z,32.20
2019-03-01T23:09:30.247Z,33.17
2019-03-01T23:11:58.894Z,36.13
2019-03-01T23:14:30.700Z,36.83
2019-03-01T23:17:03.569Z,36.53
2019-03-01T23:19:43.887Z,34.67
2019-03-01T23:22:12.547Z,34.73
2019-03-01T23:24:40.928Z,38.87
2019-03-01T23:27:09.505Z,38.17
2019-03-01T23:29:37.328Z,37.03
2019-03-01T23:32:05.611Z,37.23
2019-03-01T23:34:33.812Z,34.03
2019-03-01T23:37:03.570Z,33.30
2019-03-01T23:39:31.985Z,34.33
2019-03-01T23:42:00.393Z,33.20
2019-03-01T23:44:28.659Z,32.70
2019-03-01T23:46:59.524Z,31.50
2019-03-01T23:49:55.696Z,32.00
2019-03-01T23:52:30.511Z,31.10
2019-03-01T23:54:59.692Z,34.07
2019-03-01T23:57:28.329Z,34.33
